createdAt,value
2019-03-15T00:05:10.187Z,84.90
2019-03-15T00:07:37.722Z,84.30
2019-03-15T00:10:07.572Z,84.60
2019-03-15T00:12:40.382Z,85.30
2019-03-15T00:15:18.765Z,86.50
2019-03-15T00:17:50.880Z,86.20
2019-03-15T00:20:17.725Z,85.80
2019-03-15T00:22:47.331Z,86.00
2019-03-15T00:25:14.597Z,87.00
2019-03-15T00:27:41.582Z,87.70
2019-03-15T00:30:10.274Z,88.60
2019-03-15T00:32:38.082Z,87.80
2019-03-15T00:35:13.923Z,86.90
2019-03-15T00:37:44.935Z,88.10
2019-03-15T00:40:16.764Z,88.00
2019-03-15T00:42:50.358Z,87.80
2019-03-15T00:45:21.094Z,87.80
2019-03-15T00:50:44.170Z,89.50
2019-03-15T00:53:10.742Z,89.70
2019-03-15T00:55:38.263Z,90.00
2019-03-15T00:58:04.942Z,90.60
2019-03-15T01:00:31.595Z,90.50
2019-03-15T01:02:58.157Z,90.40
2019-03-15T01:05:24.621Z,90.40
2019-03-15T01:07:51.101Z,90.50
2019-03-15T01:10:17.600Z,90.30
2019-03-15T01:12:44.071Z,90.40
2019-03-15T01:15:11.544Z,90.70
2019-03-15T01:17:38.174Z,90.90
2019-03-15T01:20:06.650Z,90.70
2019-03-15T01:22:33.328Z,91.20
2019-03-15T01:25:00.522Z,91.00
2019-03-15T01:27:27.275Z,91.00
2019-03-15T01:29:58.434Z,90.60
2019-03-15T01:32:24.890Z,90.50
2019-03-15T01:34:51.456Z,90.60
2019-03-15T01:37:18.393Z,90.50
2019-03-15T01:39:44.970Z,89.60
2019-03-15T01:42:11.410Z,89.50
2019-03-15T01:44:37.844Z,90.10
2019-03-15T01:47:04.402Z,90.20
2019-03-15T01:49:31.555Z,90.60
2019-03-15T01:52:00.197Z,90.80
2019-03-15T01:54:26.944Z,90.70
2019-03-15T01:56:54.000Z,91.00
2019-03-15T02:02:08.490Z,91.20
2019-03-15T02:04:35.230Z,90.90
2019-03-15T02:07:02.107Z,90.90
2019-03-15T02:09:28.833Z,91.00
2019-03-15T02:11:55.735Z,91.10
2019-03-15T02:14:22.601Z,90.90
2019-03-15T02:16:49.269Z,90.90
2019-03-15T02:19:16.177Z,90.90
2019-03-15T02:21:43.495Z,91.10
2019-03-15T02:24:10.696Z,91.40
2019-03-15T02:26:37.546Z,91.40
2019-03-15T02:29:04.496Z,91.00
2019-03-15T02:31:31.434Z,90.80
2019-03-15T02:33:58.169Z,90.50
2019-03-15T02:36:24.844Z,90.80
2019-03-15T02:38:51.378Z,90.80
2019-03-15T02:41:17.831Z,91.20
2019-03-15T02:43:44.274Z,91.10
2019-03-15T02:46:10.829Z,91.20
2019-03-15T02:48:37.256Z,91.40
2019-03-15T02:51:03.726Z,91.40
2019-03-15T02:53:30.175Z,91.30
2019-03-15T02:55:56.627Z,91.00
2019-03-15T02:58:23.864Z,91.10
2019-03-15T03:00:50.436Z,91.50
2019-03-15T03:03:16.863Z,91.70
2019-03-15T03:05:43.300Z,91.80
2019-03-15T03:08:09.823Z,92.20
2019-03-15T03:10:36.274Z,92.30
2019-03-15T03:13:02.824Z,91.70
2019-03-15T03:15:30.378Z,92.50
2019-03-15T03:17:56.810Z,92.40
2019-03-15T03:20:23.243Z,92.50
2019-03-15T03:22:49.782Z,92.40
2019-03-15T03:25:17.204Z,92.00
2019-03-15T03:27:43.958Z,92.20
2019-03-15T03:30:10.575Z,92.50
2019-03-15T03:32:36.997Z,92.80
2019-03-15T03:35:06.728Z,92.80
2019-03-15T03:37:34.890Z,93.20
2019-03-15T03:40:02.005Z,93.10
2019-03-15T03:42:29.974Z,92.50
2019-03-15T03:44:56.427Z,92.50
2019-03-15T03:47:22.859Z,92.60
2019-03-15T03:49:49.303Z,92.30
2019-03-15T03:52:15.751Z,92.70
2019-03-15T03:54:42.169Z,92.50
2019-03-15T03:57:08.705Z,92.40
2019-03-15T03:59:35.359Z,92.20
2019-03-15T04:02:01.938Z,92.40
2019-03-15T04:04:28.408Z,92.00
2019-03-15T04:06:55.076Z,91.40
2019-03-15T04:09:21.501Z,93.20
2019-03-15T04:11:55.501Z,92.90
2019-03-15T04:14:16.154Z,91.80
2019-03-15T04:16:42.618Z,94.10
2019-03-15T04:19:09.205Z,93.80
2019-03-15T04:21:35.645Z,93.40
2019-03-15T04:24:02.071Z,93.50
2019-03-15T04:26:28.509Z,93.40
2019-03-15T04:28:57.003Z,93.20
2019-03-15T04:31:23.185Z,93.20
2019-03-15T04:33:49.653Z,93.50
2019-03-15T04:36:16.123Z,93.90
2019-03-15T04:38:42.568Z,94.40
2019-03-15T04:41:09.011Z,94.30
2019-03-15T04:43:35.530Z,94.00
2019-03-15T04:46:01.877Z,94.30
2019-03-15T04:48:28.322Z,93.40
2019-03-15T04:50:54.758Z,94.00
2019-03-15T04:53:21.184Z,93.60
2019-03-15T04:55:47.626Z,93.40
2019-03-15T04:58:14.082Z,94.20
2019-03-15T05:00:40.538Z,94.80
2019-03-15T05:03:06.967Z,93.90
2019-03-15T05:05:33.431Z,94.70
2019-03-15T05:07:59.962Z,95.30
2019-03-15T05:10:26.410Z,93.10
2019-03-15T05:12:52.832Z,93.60
2019-03-15T05:15:19.260Z,94.10
2019-03-15T05:17:45.917Z,94.00
2019-03-15T05:20:12.450Z,94.70
2019-03-15T05:22:38.909Z,94.30
2019-03-15T05:25:06.865Z,94.60
2019-03-15T05:27:33.324Z,94.20
2019-03-15T05:29:59.737Z,94.30
2019-03-15T05:32:26.278Z,94.10
2019-03-15T05:34:52.704Z,93.50
2019-03-15T05:37:19.196Z,94.40
2019-03-15T05:39:45.643Z,94.20
2019-03-15T05:42:12.093Z,94.50
2019-03-15T05:44:38.524Z,95.30
2019-03-15T05:47:04.961Z,95.10
2019-03-15T05:49:31.414Z,94.50
2019-03-15T05:51:57.869Z,94.90
2019-03-15T05:54:24.331Z,94.90
2019-03-15T05:56:50.790Z,94.60
2019-03-15T05:59:17.238Z,94.50
2019-03-15T06:01:43.734Z,93.90
2019-03-15T06:04:10.210Z,94.50
2019-03-15T06:06:36.631Z,95.00
2019-03-15T06:09:04.609Z,94.30
2019-03-15T06:11:31.070Z,94.30
2019-03-15T06:13:57.516Z,95.40
2019-03-15T06:16:23.963Z,94.50
2019-03-15T06:18:50.408Z,95.50
2019-03-15T06:21:16.835Z,95.20
2019-03-15T06:23:43.325Z,94.50
2019-03-15T06:26:09.712Z,94.70
2019-03-15T06:28:36.169Z,93.60
2019-03-15T06:31:02.737Z,93.20
2019-03-15T06:33:29.287Z,93.90
2019-03-15T06:35:55.724Z,93.50
2019-03-15T06:38:22.150Z,92.60
2019-03-15T06:40:48.634Z,91.80
2019-03-15T06:43:15.057Z,92.20
2019-03-15T06:45:41.919Z,92.70
2019-03-15T06:48:08.525Z,92.10
2019-03-15T06:50:34.952Z,90.90
2019-03-15T06:53:01.481Z,92.30
2019-03-15T06:55:27.929Z,92.50
2019-03-15T06:57:54.370Z,91.40
2019-03-15T07:00:20.790Z,91.50
2019-03-15T07:02:48.264Z,91.90
2019-03-15T07:05:14.692Z,92.00
2019-03-15T07:07:41.151Z,91.90
2019-03-15T07:10:09.516Z,92.80
2019-03-15T07:12:36.187Z,91.70
2019-03-15T07:15:04.961Z,91.30
2019-03-15T07:17:31.506Z,92.70
2019-03-15T07:19:57.928Z,91.30
2019-03-15T07:22:24.379Z,92.30
2019-03-15T07:24:50.842Z,90.10
2019-03-15T07:27:17.300Z,91.50
2019-03-15T07:29:43.768Z,91.90
2019-03-15T07:32:10.241Z,91.20
2019-03-15T07:34:36.656Z,90.70
2019-03-15T07:37:03.114Z,86.20
2019-03-15T07:39:29.567Z,85.70
2019-03-15T07:41:56.095Z,85.70
2019-03-15T07:44:22.569Z,85.30
2019-03-15T07:46:51.025Z,85.00
2019-03-15T07:49:17.247Z,84.80
2019-03-15T07:51:44.702Z,84.00
2019-03-15T07:54:11.167Z,84.30
2019-03-15T07:56:37.630Z,84.50
2019-03-15T07:59:05.090Z,82.80
2019-03-15T08:01:31.547Z,82.40
2019-03-15T08:03:58.076Z,81.50
2019-03-15T08:06:34.162Z,81.60
2019-03-15T08:08:52.761Z,81.40
2019-03-15T08:11:19.166Z,80.10
2019-03-15T08:13:45.615Z,82.40
2019-03-15T08:16:12.111Z,85.10
2019-03-15T08:18:38.539Z,80.90
2019-03-15T08:21:04.955Z,83.30
2019-03-15T08:23:31.396Z,83.90
2019-03-15T08:25:57.829Z,82.20
2019-03-15T08:28:24.371Z,79.50
2019-03-15T08:30:50.905Z,80.30
2019-03-15T08:33:17.332Z,79.60
2019-03-15T08:35:43.776Z,81.10
2019-03-15T08:38:10.215Z,77.80
2019-03-15T08:40:36.738Z,72.80
2019-03-15T08:43:03.265Z,74.70
2019-03-15T08:45:29.700Z,71.50
2019-03-15T08:47:56.171Z,73.90
2019-03-15T08:50:24.520Z,73.20
2019-03-15T08:52:53.935Z,70.40
2019-03-15T08:55:19.100Z,70.60
2019-03-15T08:57:45.546Z,71.30
2019-03-15T09:00:13.586Z,72.30
2019-03-15T09:02:40.122Z,71.40
2019-03-15T09:05:09.098Z,70.80
2019-03-15T09:07:35.551Z,71.30
2019-03-15T09:10:04.818Z,72.40
2019-03-15T09:12:31.364Z,70.40
2019-03-15T09:14:57.812Z,67.90
2019-03-15T09:17:24.232Z,67.30
2019-03-15T09:19:50.707Z,66.90
2019-03-15T09:22:17.141Z,65.10
2019-03-15T09:24:43.608Z,65.80
2019-03-15T09:27:10.685Z,66.70
2019-03-15T09:29:37.221Z,64.40
2019-03-15T09:32:06.385Z,63.00
2019-03-15T09:34:31.917Z,63.50
2019-03-15T09:36:58.358Z,63.80
2019-03-15T09:39:24.826Z,62.60
2019-03-15T09:41:51.284Z,60.30
2019-03-15T09:44:17.730Z,60.60
2019-03-15T09:46:44.155Z,59.70
2019-03-15T09:49:10.581Z,60.30
2019-03-15T09:51:37.121Z,60.10
2019-03-15T09:54:03.655Z,61.20
2019-03-15T09:56:30.102Z,62.10
2019-03-15T09:58:56.569Z,61.90
2019-03-15T10:01:34.694Z,61.80
2019-03-15T10:03:51.302Z,61.40
2019-03-15T10:06:19.591Z,56.90
2019-03-15T10:08:46.095Z,59.10
2019-03-15T10:11:12.556Z,54.10
2019-03-15T10:13:39.005Z,54.60
2019-03-15T10:16:05.469Z,52.60
2019-03-15T10:18:32.950Z,57.50
2019-03-15T10:20:59.489Z,53.00
2019-03-15T10:23:26.268Z,55.80
2019-03-15T10:25:52.706Z,56.00
2019-03-15T10:28:19.180Z,55.50
2019-03-15T10:30:45.595Z,54.60
2019-03-15T10:33:12.029Z,51.20
2019-03-15T10:35:38.491Z,52.90
2019-03-15T10:38:04.946Z,54.20
2019-03-15T10:40:42.036Z,55.20
2019-03-15T10:43:26.819Z,50.50
2019-03-15T10:45:58.269Z,50.90
2019-03-15T10:48:25.756Z,49.90
2019-03-15T10:50:53.622Z,49.90
2019-03-15T10:53:22.770Z,55.00
2019-03-15T10:55:59.665Z,51.20
2019-03-15T10:58:17.619Z,51.20
2019-03-15T11:00:44.071Z,47.50
2019-03-15T11:03:12.944Z,50.10
2019-03-15T11:05:38.907Z,48.10
2019-03-15T11:08:05.592Z,45.40
2019-03-15T11:10:32.040Z,43.30
2019-03-15T11:12:58.503Z,44.10
2019-03-15T11:15:24.984Z,44.40
2019-03-15T11:17:51.429Z,42.50
2019-03-15T11:20:17.873Z,42.90
2019-03-15T11:22:44.318Z,41.80
2019-03-15T11:25:11.146Z,41.10
2019-03-15T11:27:37.732Z,41.00
2019-03-15T11:30:06.426Z,40.80
2019-03-15T11:32:32.983Z,40.10
2019-03-15T11:34:59.415Z,42.20
2019-03-15T11:37:25.867Z,41.00
2019-03-15T11:39:52.323Z,39.10
2019-03-15T11:42:18.791Z,40.00
2019-03-15T11:44:45.552Z,39.40
2019-03-15T11:47:12.458Z,39.30
2019-03-15T11:49:38.990Z,39.40
2019-03-15T11:52:05.438Z,39.70
2019-03-15T11:54:31.888Z,37.00
2019-03-15T11:56:58.348Z,38.00
2019-03-15T11:59:24.830Z,36.40
2019-03-15T12:02:03.350Z,37.20
2019-03-15T12:04:19.566Z,37.40
2019-03-15T12:06:45.996Z,36.10
2019-03-15T12:09:12.908Z,37.20
2019-03-15T12:11:39.897Z,35.40
2019-03-15T12:14:07.810Z,36.00
2019-03-15T12:16:34.651Z,36.00
2019-03-15T12:19:03.237Z,36.70
2019-03-15T12:21:29.702Z,34.80
2019-03-15T12:23:56.187Z,35.30
2019-03-15T12:26:22.673Z,37.20
2019-03-15T12:28:49.131Z,36.10
2019-03-15T12:31:16.507Z,36.30
2019-03-15T12:33:43.945Z,36.80
2019-03-15T12:36:10.550Z,33.60
2019-03-15T12:38:37.356Z,35.70
2019-03-15T12:41:04.943Z,34.10
2019-03-15T12:43:32.878Z,34.00
2019-03-15T12:45:59.501Z,33.30
2019-03-15T12:48:26.705Z,33.60
2019-03-15T12:50:53.474Z,34.00
2019-03-15T12:53:22.597Z,32.30
2019-03-15T12:55:49.784Z,33.90
2019-03-15T12:58:16.655Z,33.40
2019-03-15T13:00:46.776Z,34.10
2019-03-15T13:03:16.387Z,33.70
2019-03-15T13:05:42.868Z,32.80
2019-03-15T13:08:09.678Z,34.10
2019-03-15T13:10:37.159Z,35.20
2019-03-15T13:13:03.764Z,36.40
2019-03-15T13:15:32.069Z,37.30
2019-03-15T13:17:58.805Z,36.60
2019-03-15T13:20:25.397Z,36.90
2019-03-15T13:22:52.306Z,38.20
2019-03-15T13:25:18.780Z,37.70
2019-03-15T13:27:45.421Z,37.10
2019-03-15T13:30:14.551Z,36.90
2019-03-15T13:32:41.107Z,38.00
2019-03-15T13:35:07.924Z,38.70
2019-03-15T13:37:34.710Z,37.50
2019-03-15T13:40:07.557Z,38.00
2019-03-15T13:42:35.984Z,38.30
2019-03-15T13:45:05.441Z,38.00
2019-03-15T13:47:31.975Z,39.10
2019-03-15T13:49:58.439Z,38.60
2019-03-15T13:52:24.881Z,38.70
2019-03-15T13:54:51.448Z,40.60
2019-03-15T13:57:21.353Z,38.90
2019-03-15T13:59:46.183Z,39.50
2019-03-15T14:02:12.667Z,39.30
2019-03-15T14:04:39.245Z,38.40
2019-03-15T14:07:05.885Z,38.60
2019-03-15T14:09:32.421Z,39.00
2019-03-15T14:11:59.018Z,37.80
2019-03-15T14:14:25.496Z,38.20
2019-03-15T14:16:51.986Z,38.50
2019-03-15T14:19:19.907Z,36.60
2019-03-15T14:21:48.706Z,36.60
2019-03-15T14:24:15.529Z,32.80
2019-03-15T14:26:42.036Z,34.80
2019-03-15T14:29:08.679Z,35.50
2019-03-15T14:31:35.689Z,33.00
2019-03-15T14:34:05.297Z,34.90
2019-03-15T14:36:33.878Z,33.30
2019-03-15T14:39:01.638Z,35.20
2019-03-15T14:41:30.109Z,33.00
2019-03-15T14:43:56.603Z,32.50
2019-03-15T14:46:23.045Z,31.40
2019-03-15T14:48:49.491Z,30.40
2019-03-15T14:51:15.963Z,31.20
2019-03-15T14:53:42.438Z,31.20
2019-03-15T14:56:08.925Z,30.50
2019-03-15T14:58:35.498Z,30.00
2019-03-15T15:01:02.156Z,30.30
2019-03-15T15:03:28.642Z,30.00
2019-03-15T15:05:56.402Z,29.40
2019-03-15T15:08:24.221Z,29.70
2019-03-15T15:10:50.715Z,31.60
2019-03-15T15:13:17.206Z,30.50
2019-03-15T15:15:43.666Z,31.00
2019-03-15T15:18:10.145Z,30.80
2019-03-15T15:20:36.613Z,31.40
2019-03-15T15:23:03.042Z,30.50
2019-03-15T15:25:29.493Z,30.60
2019-03-15T15:28:04.514Z,30.70
2019-03-15T15:30:24.403Z,29.80
2019-03-15T15:32:50.877Z,30.70
2019-03-15T15:35:17.801Z,30.00
2019-03-15T15:37:44.353Z,30.10
2019-03-15T15:40:12.087Z,29.70
2019-03-15T15:42:38.678Z,29.80
2019-03-15T15:45:07.140Z,29.70
2019-03-15T15:47:33.700Z,30.90
2019-03-15T15:50:00.359Z,31.50
2019-03-15T15:52:30.085Z,30.60
2019-03-15T15:54:58.727Z,30.50
2019-03-15T15:57:25.236Z,31.40
2019-03-15T15:59:51.680Z,31.70
2019-03-15T16:02:18.124Z,31.60
2019-03-15T16:04:45.226Z,32.70
2019-03-15T16:07:11.817Z,33.20
2019-03-15T16:09:38.375Z,33.90
2019-03-15T16:12:04.849Z,34.30
2019-03-15T16:14:34.185Z,35.60
2019-03-15T16:17:00.792Z,36.60
2019-03-15T16:19:27.885Z,37.00
2019-03-15T16:21:54.449Z,37.70
2019-03-15T16:24:21.479Z,38.50
2019-03-15T16:26:47.929Z,38.70
2019-03-15T16:29:14.848Z,39.30
2019-03-15T16:31:41.778Z,39.60
2019-03-15T16:34:22.135Z,39.50
2019-03-15T16:36:51.955Z,39.40
2019-03-15T16:39:28.441Z,41.10
2019-03-15T16:41:56.421Z,40.70
2019-03-15T16:44:22.967Z,40.90
2019-03-15T16:46:49.452Z,40.90
2019-03-15T16:49:15.887Z,40.80
2019-03-15T16:51:42.313Z,41.50
2019-03-15T16:54:08.889Z,41.70
2019-03-15T16:56:35.333Z,41.70
2019-03-15T16:59:01.904Z,42.30
2019-03-15T17:01:28.333Z,43.30
2019-03-15T17:03:54.774Z,43.20
2019-03-15T17:06:21.231Z,43.60
2019-03-15T17:08:47.790Z,44.40
2019-03-15T17:11:17.387Z,44.20
2019-03-15T17:13:43.926Z,44.70
2019-03-15T17:16:10.570Z,43.60
2019-03-15T17:18:37.046Z,44.50
2019-03-15T17:21:03.543Z,44.80
2019-03-15T17:23:29.989Z,45.00
2019-03-15T17:25:57.044Z,47.50
2019-03-15T17:28:23.708Z,45.70
2019-03-15T17:30:50.262Z,45.60
2019-03-15T17:33:17.938Z,47.00
2019-03-15T17:35:44.415Z,46.40
2019-03-15T17:38:10.890Z,47.00
2019-03-15T17:40:37.426Z,48.60
2019-03-15T17:43:05.373Z,49.90
2019-03-15T17:45:31.825Z,50.30
2019-03-15T17:47:58.353Z,50.10
2019-03-15T17:50:25.764Z,51.20
2019-03-15T17:52:52.220Z,53.10
2019-03-15T17:55:18.900Z,53.40
2019-03-15T17:57:46.156Z,55.20
2019-03-15T18:00:34.565Z,54.00
2019-03-15T18:03:01.113Z,54.40
2019-03-15T18:05:27.700Z,56.40
2019-03-15T18:07:54.260Z,55.50
2019-03-15T18:10:20.821Z,55.10
2019-03-15T18:12:47.289Z,56.20
2019-03-15T18:15:13.871Z,55.30
2019-03-15T18:17:40.459Z,56.00
2019-03-15T18:20:07.839Z,56.60
2019-03-15T18:22:34.535Z,56.90
2019-03-15T18:25:01.003Z,57.90
2019-03-15T18:27:27.670Z,58.60
2019-03-15T18:29:54.124Z,58.70
2019-03-15T18:32:20.573Z,59.40
2019-03-15T18:34:47.048Z,61.00
2019-03-15T18:37:13.601Z,61.80
2019-03-15T18:39:40.157Z,63.40
2019-03-15T18:42:06.754Z,64.20
2019-03-15T18:44:33.208Z,63.80
2019-03-15T18:46:59.649Z,64.50
2019-03-15T18:49:26.218Z,64.40
2019-03-15T18:51:52.716Z,65.30
2019-03-15T18:54:19.245Z,66.40
2019-03-15T18:56:45.737Z,65.70
2019-03-15T18:59:12.349Z,66.00
2019-03-15T19:01:38.911Z,66.50
2019-03-15T19:04:05.387Z,66.60
2019-03-15T19:06:31.878Z,66.80
2019-03-15T19:08:58.581Z,66.30
2019-03-15T19:11:25.056Z,66.30
2019-03-15T19:13:52.298Z,66.80
2019-03-15T19:16:20.581Z,68.60
2019-03-15T19:18:47.384Z,67.80
2019-03-15T19:21:18.427Z,67.50
2019-03-15T19:23:45.061Z,69.00
2019-03-15T19:26:11.661Z,68.30
2019-03-15T19:28:38.416Z,67.00
2019-03-15T19:31:04.991Z,67.80
2019-03-15T19:33:31.469Z,68.70
2019-03-15T19:35:57.928Z,68.70
2019-03-15T19:38:24.353Z,69.40
2019-03-15T19:40:50.872Z,70.00
2019-03-15T19:43:17.337Z,69.50
2019-03-15T19:45:43.818Z,68.90
2019-03-15T19:48:10.404Z,69.70
2019-03-15T19:50:36.870Z,69.90
2019-03-15T19:53:03.406Z,69.50
2019-03-15T19:55:29.853Z,69.10
2019-03-15T19:57:56.588Z,69.70
2019-03-15T20:00:23.057Z,69.10
2019-03-15T20:02:49.724Z,68.90
2019-03-15T20:05:16.421Z,68.40
2019-03-15T20:07:43.119Z,68.60
2019-03-15T20:10:11.584Z,69.80
2019-03-15T20:12:38.265Z,68.80
2019-03-15T20:15:06.330Z,67.80
2019-03-15T20:17:34.221Z,68.10
2019-03-15T20:20:00.837Z,68.10
2019-03-15T20:22:27.498Z,67.80
2019-03-15T20:24:54.006Z,67.50
2019-03-15T20:27:20.612Z,67.00
2019-03-15T20:29:47.309Z,67.70
2019-03-15T20:32:13.916Z,67.80
2019-03-15T20:34:40.500Z,68.80
2019-03-15T20:37:07.130Z,69.70
2019-03-15T20:39:33.731Z,68.70
2019-03-15T20:42:00.367Z,69.90
2019-03-15T20:44:28.851Z,67.50
2019-03-15T20:46:55.280Z,67.80
2019-03-15T20:49:22.000Z,68.10
2019-03-15T20:51:48.405Z,67.40
2019-03-15T20:54:14.898Z,68.00
2019-03-15T20:56:41.373Z,67.50
2019-03-15T20:59:07.850Z,67.40
2019-03-15T21:01:34.496Z,67.90
2019-03-15T21:04:01.172Z,69.20
2019-03-15T21:06:27.727Z,68.90
2019-03-15T21:08:54.299Z,67.30
2019-03-15T21:11:20.808Z,66.10
2019-03-15T21:13:47.464Z,66.60
2019-03-15T21:16:13.932Z,65.90
2019-03-15T21:18:40.819Z,67.00
2019-03-15T21:21:07.453Z,66.90
2019-03-15T21:23:34.941Z,67.20
2019-03-15T21:26:01.393Z,68.30
2019-03-15T21:28:27.839Z,66.00
2019-03-15T21:30:54.267Z,68.00
2019-03-15T21:33:20.874Z,66.90
2019-03-15T21:35:47.286Z,66.90
2019-03-15T21:38:13.711Z,68.30
2019-03-15T21:40:40.166Z,67.70
2019-03-15T21:43:06.616Z,65.90
2019-03-15T21:45:33.145Z,64.70
2019-03-15T21:47:59.611Z,65.30
2019-03-15T21:50:26.039Z,66.90
2019-03-15T21:52:52.468Z,70.50
2019-03-15T21:55:19.007Z,71.20
2019-03-15T21:57:45.537Z,72.20
2019-03-15T22:00:19.044Z,73.30
2019-03-15T22:02:45.796Z,73.00
2019-03-15T22:05:12.303Z,71.60
2019-03-15T22:07:39.914Z,72.50
2019-03-15T22:10:11.432Z,75.30
2019-03-15T22:12:38.159Z,74.00
2019-03-15T22:15:07.424Z,73.90
2019-03-15T22:17:33.982Z,73.50
2019-03-15T22:20:00.439Z,73.20
2019-03-15T22:22:26.922Z,73.90
2019-03-15T22:24:53.391Z,73.90
2019-03-15T22:27:20.954Z,75.90
2019-03-15T22:29:53.425Z,76.80
2019-03-15T22:32:15.800Z,78.10
2019-03-15T22:34:42.341Z,76.90
2019-03-15T22:37:08.813Z,76.80
2019-03-15T22:39:35.266Z,77.80
2019-03-15T22:42:01.814Z,77.40
2019-03-15T22:44:28.258Z,78.40
2019-03-15T22:46:54.724Z,78.30
2019-03-15T22:49:21.377Z,78.00
2019-03-15T22:51:47.824Z,79.30
2019-03-15T22:54:14.291Z,80.40
2019-03-15T22:56:40.714Z,80.20
2019-03-15T22:59:07.154Z,79.50
2019-03-15T23:01:33.807Z,79.20
2019-03-15T23:04:00.344Z,80.00
2019-03-15T23:06:26.873Z,80.00
2019-03-15T23:08:53.374Z,79.40
2019-03-15T23:11:19.815Z,80.00
2019-03-15T23:13:47.251Z,80.40
2019-03-15T23:16:13.678Z,80.20
2019-03-15T23:18:40.100Z,82.20
2019-03-15T23:21:06.574Z,83.10
2019-03-15T23:23:33.062Z,83.40
2019-03-15T23:25:59.640Z,83.10
2019-03-15T23:28:26.191Z,82.70
2019-03-15T23:30:52.855Z,82.70
2019-03-15T23:33:19.272Z,83.40
2019-03-15T23:35:53.911Z,82.00
2019-03-15T23:38:13.939Z,79.20
2019-03-15T23:40:40.414Z,77.60
2019-03-15T23:43:06.870Z,76.20
2019-03-15T23:45:33.314Z,74.90
2019-03-15T23:47:59.760Z,74.10
2019-03-15T23:50:26.202Z,74.30
2019-03-15T23:52:52.846Z,75.20
2019-03-15T23:55:19.323Z,74.90
2019-03-15T23:57:45.783Z,74.30
